createdAt,value
2023-03-21T00:00:41.734Z,28.60
2023-03-21T00:03:09.285Z,31.90
2023-03-21T00:05:42.196Z,34.63
2023-03-21T00:08:09.862Z,30.83
2023-03-21T00:10:41.101Z,35.67
2023-03-21T00:13:16.200Z,34.53
2023-03-21T00:16:17.446Z,34.70
2023-03-21T00:18:47.484Z,32.95
2023-03-21T00:21:43.930Z,36.58
2023-03-21T00:24:08.171Z,34.35
2023-03-21T00:26:35.895Z,33.10
2023-03-21T00:29:03.386Z,36.67
2023-03-21T00:31:30.698Z,35.28
2023-03-21T00:33:58.151Z,32.08
2023-03-21T00:36:26.243Z,30.80
2023-03-21T00:38:54.607Z,34.92
2023-03-21T00:41:39.281Z,30.23
2023-03-21T00:44:09.107Z,30.58
2023-03-21T00:46:47.035Z,32.55
2023-03-21T00:51:52.053Z,31.77
2023-03-21T00:54:19.846Z,33.95
2023-03-21T00:56:47.282Z,31.98
2023-03-21T00:59:14.656Z,31.13
2023-03-21T01:01:43.448Z,29.33
2023-03-21T01:04:14.708Z,32.05
2023-03-21T01:06:43.429Z,35.33
2023-03-21T01:09:22.718Z,34.20
2023-03-21T01:11:52.378Z,32.58
2023-03-21T01:14:23.379Z,31.40
2023-03-21T01:16:54.642Z,32.25
2023-03-21T01:19:40.983Z,31.83
2023-03-21T01:22:16.383Z,33.75
2023-03-21T01:24:53.931Z,36.70
2023-03-21T01:27:24.346Z,34.65
2023-03-21T01:29:51.968Z,34.83
2023-03-21T01:32:19.682Z,35.08
2023-03-21T01:34:47.116Z,34.88
2023-03-21T01:37:14.860Z,31.83
2023-03-21T01:39:47.234Z,34.03
2023-03-21T01:42:15.192Z,32.88
2023-03-21T01:44:59.861Z,32.80
2023-03-21T01:47:35.998Z,34.08
2023-03-21T01:50:22.399Z,29.73
2023-03-21T01:53:08.725Z,26.35
2023-03-21T01:55:38.601Z,30.85
2023-03-21T01:58:14.287Z,30.83
2023-03-21T02:01:01.026Z,29.65
2023-03-21T02:03:50.554Z,30.38
2023-03-21T02:06:52.622Z,32.20
2023-03-21T02:09:37.361Z,32.10
2023-03-21T02:12:11.268Z,35.78
2023-03-21T02:14:39.466Z,36.90
2023-03-21T02:17:29.869Z,37.58
2023-03-21T02:20:22.303Z,37.05
2023-03-21T02:23:10.574Z,37.03
2023-03-21T02:26:06.766Z,38.83
2023-03-21T02:29:00.352Z,37.63
2023-03-21T02:31:46.337Z,39.88
2023-03-21T02:34:32.667Z,37.70
2023-03-21T02:37:28.942Z,39.45
2023-03-21T02:40:27.971Z,41.33
2023-03-21T02:43:22.532Z,36.88
2023-03-21T02:45:58.583Z,47.00
2023-03-21T02:48:44.403Z,43.50
2023-03-21T02:51:21.384Z,38.65
2023-03-21T02:54:19.978Z,39.70
2023-03-21T02:56:44.623Z,43.17
2023-03-21T02:59:14.816Z,43.75
2023-03-21T03:01:42.472Z,43.92
2023-03-21T03:04:25.014Z,40.08
2023-03-21T03:06:58.662Z,45.10
2023-03-21T03:09:52.748Z,43.28
2023-03-21T03:12:58.278Z,44.22
2023-03-21T03:15:39.556Z,47.85
2023-03-21T03:18:07.003Z,45.58
2023-03-21T03:20:54.986Z,47.92
2023-03-21T03:23:55.892Z,44.38
2023-03-21T03:26:30.902Z,45.25
2023-03-21T03:29:05.313Z,43.80
2023-03-21T03:31:41.960Z,42.60
2023-03-21T03:34:22.405Z,47.00
2023-03-21T03:36:56.422Z,41.42
2023-03-21T03:39:46.360Z,50.15
2023-03-21T03:42:28.792Z,42.22
2023-03-21T03:45:10.009Z,41.17
2023-03-21T03:47:57.408Z,41.17
2023-03-21T03:50:43.165Z,42.75
2023-03-21T03:53:27.174Z,42.22
2023-03-21T03:55:57.456Z,40.15
2023-03-21T03:58:39.539Z,45.53
2023-03-21T04:01:12.913Z,46.00
2023-03-21T04:03:49.782Z,44.03
2023-03-21T04:06:22.340Z,41.63
2023-03-21T04:08:52.225Z,42.33
2023-03-21T04:11:20.569Z,36.67
2023-03-21T04:13:52.281Z,37.45
2023-03-21T04:16:24.380Z,35.38
2023-03-21T04:18:52.689Z,39.88
2023-03-21T04:21:21.783Z,41.92
2023-03-21T04:23:49.280Z,42.55
2023-03-21T04:26:16.735Z,48.13
2023-03-21T04:28:54.507Z,43.42
2023-03-21T04:31:27.460Z,43.05
2023-03-21T04:34:15.056Z,41.95
2023-03-21T04:36:47.929Z,45.78
2023-03-21T04:39:16.920Z,42.90
2023-03-21T04:41:48.243Z,39.40
2023-03-21T04:44:17.377Z,39.63
2023-03-21T04:46:45.550Z,40.30
2023-03-21T04:49:13.706Z,38.33
2023-03-21T04:51:45.417Z,40.97
2023-03-21T04:54:17.925Z,44.35
2023-03-21T04:56:45.347Z,37.97
2023-03-21T04:59:15.781Z,41.13
2023-03-21T05:01:43.973Z,39.70
2023-03-21T05:04:13.586Z,40.35
2023-03-21T05:06:45.149Z,36.35
2023-03-21T05:09:13.142Z,39.67
2023-03-21T05:11:41.405Z,42.03
2023-03-21T05:14:14.341Z,37.47
2023-03-21T05:16:53.690Z,38.20
2023-03-21T05:19:35.717Z,35.55
2023-03-21T05:24:33.642Z,39.75
2023-03-21T05:27:02.637Z,39.72
2023-03-21T05:32:04.404Z,40.33
2023-03-21T05:34:32.316Z,42.97
2023-03-21T05:37:01.134Z,39.63
2023-03-21T05:39:42.578Z,42.78
2023-03-21T05:42:18.708Z,42.28
2023-03-21T05:44:47.501Z,41.40
2023-03-21T05:47:17.178Z,44.60
2023-03-21T05:49:47.446Z,41.58
2023-03-21T05:52:16.077Z,38.95
2023-03-21T05:54:45.506Z,41.88
2023-03-21T05:57:13.370Z,39.78
2023-03-21T05:59:58.978Z,40.17
2023-03-21T06:02:28.156Z,39.47
2023-03-21T06:05:01.390Z,40.22
2023-03-21T06:07:28.797Z,40.05
2023-03-21T06:09:56.416Z,41.15
2023-03-21T06:12:23.798Z,38.45
2023-03-21T06:15:25.431Z,37.45
2023-03-21T06:18:15.496Z,34.58
2023-03-21T06:20:54.848Z,32.10
2023-03-21T06:23:22.283Z,31.30
2023-03-21T06:25:50.310Z,30.90
2023-03-21T06:28:17.834Z,30.58
2023-03-21T06:30:45.455Z,32.95
2023-03-21T06:33:25.681Z,26.85
2023-03-21T06:35:58.374Z,29.85
2023-03-21T06:38:26.900Z,30.83
2023-03-21T06:40:54.860Z,33.03
2023-03-21T06:43:24.325Z,28.98
2023-03-21T06:45:51.658Z,28.45
2023-03-21T06:48:19.101Z,25.67
2023-03-21T06:50:52.183Z,25.42
2023-03-21T06:53:25.243Z,25.75
2023-03-21T06:56:28.034Z,26.10
2023-03-21T06:58:56.929Z,26.98
2023-03-21T07:01:46.546Z,25.10
2023-03-21T07:04:14.228Z,26.17
2023-03-21T07:06:42.639Z,29.45
2023-03-21T07:09:10.270Z,26.98
2023-03-21T07:11:38.676Z,28.88
2023-03-21T07:14:07.009Z,20.88
2023-03-21T07:16:34.485Z,24.90
2023-03-21T07:19:01.846Z,22.45
2023-03-21T07:21:29.229Z,27.30
2023-03-21T07:23:56.683Z,22.35
2023-03-21T07:26:23.926Z,23.95
2023-03-21T07:28:51.255Z,21.67
2023-03-21T07:31:19.701Z,22.92
2023-03-21T07:33:48.845Z,19.52
2023-03-21T07:36:16.819Z,22.95
2023-03-21T07:38:47.214Z,18.15
2023-03-21T07:43:43.518Z,20.40
2023-03-21T07:46:10.977Z,17.75
2023-03-21T07:48:38.301Z,15.63
2023-03-21T07:51:07.214Z,17.58
2023-03-21T07:53:36.354Z,13.73
2023-03-21T07:56:04.266Z,15.23
2023-03-21T07:58:34.327Z,14.55
2023-03-21T08:01:02.473Z,15.38
2023-03-21T08:03:31.202Z,12.82
2023-03-21T08:06:01.390Z,11.85
2023-03-21T08:08:28.859Z,17.15
2023-03-21T08:10:56.805Z,11.10
2023-03-21T08:13:24.890Z,10.82
2023-03-21T08:15:52.222Z,15.75
2023-03-21T08:18:19.579Z,10.25
2023-03-21T08:20:46.975Z,10.20
2023-03-21T08:23:14.327Z,9.50
2023-03-21T08:25:41.618Z,11.07
2023-03-21T08:28:08.902Z,11.57
2023-03-21T08:30:37.864Z,13.68
2023-03-21T08:33:05.222Z,9.85
2023-03-21T08:35:32.488Z,11.50
2023-03-21T08:37:59.790Z,11.77
2023-03-21T08:40:27.386Z,10.82
2023-03-21T08:42:54.818Z,12.25
2023-03-21T08:45:23.057Z,11.57
2023-03-21T08:47:50.985Z,12.15
2023-03-21T08:50:23.503Z,13.40
2023-03-21T08:52:51.335Z,11.88
2023-03-21T08:55:19.956Z,12.10
2023-03-21T08:57:47.389Z,12.43
2023-03-21T09:00:18.531Z,13.05
2023-03-21T09:02:48.644Z,9.57
2023-03-21T09:05:17.112Z,12.77
2023-03-21T09:07:45.544Z,11.07
2023-03-21T09:10:21.052Z,12.18
2023-03-21T09:12:53.345Z,12.32
2023-03-21T09:15:22.278Z,9.05
2023-03-21T09:17:53.123Z,10.93
2023-03-21T09:20:26.415Z,10.30
2023-03-21T09:22:54.413Z,13.93
2023-03-21T09:25:21.776Z,8.38
2023-03-21T09:27:49.384Z,14.93
2023-03-21T09:30:20.858Z,10.82
2023-03-21T09:32:49.709Z,14.38
2023-03-21T09:35:19.044Z,28.10
2023-03-21T09:37:48.484Z,18.17
2023-03-21T09:40:19.844Z,13.82
2023-03-21T09:42:51.572Z,13.18
2023-03-21T09:45:37.279Z,10.52
2023-03-21T09:48:07.909Z,10.15
2023-03-21T09:50:38.917Z,12.85
2023-03-21T09:53:25.597Z,10.52
2023-03-21T09:55:54.710Z,10.80
2023-03-21T09:58:40.592Z,13.23
2023-03-21T10:01:33.214Z,15.00
2023-03-21T10:04:06.113Z,11.98
2023-03-21T10:06:40.732Z,11.15
2023-03-21T10:09:24.764Z,13.55
2023-03-21T10:12:08.538Z,12.85
2023-03-21T10:14:48.580Z,7.80
2023-03-21T10:17:41.355Z,10.38
2023-03-21T10:20:16.153Z,9.57
2023-03-21T10:22:46.198Z,7.68
2023-03-21T10:25:36.577Z,13.18
2023-03-21T10:28:07.410Z,9.85
2023-03-21T10:30:47.348Z,8.40
2023-03-21T10:33:22.254Z,8.25
2023-03-21T10:36:10.721Z,10.00
2023-03-21T10:38:46.062Z,12.52
2023-03-21T10:41:13.472Z,7.15
2023-03-21T10:43:42.172Z,7.28
2023-03-21T10:46:14.228Z,12.07
2023-03-21T10:48:47.234Z,17.40
2023-03-21T10:51:22.633Z,13.55
2023-03-21T10:53:59.238Z,11.80
2023-03-21T10:56:36.251Z,9.68
2023-03-21T10:59:07.213Z,8.13
2023-03-21T11:01:41.858Z,9.80
2023-03-21T11:04:21.254Z,12.45
2023-03-21T11:07:07.674Z,9.90
2023-03-21T11:09:53.505Z,11.45
2023-03-21T11:12:41.173Z,7.82
2023-03-21T11:15:37.930Z,7.13
2023-03-21T11:18:39.930Z,11.65
2023-03-21T11:21:11.350Z,6.65
2023-03-21T11:23:48.340Z,8.77
2023-03-21T11:26:24.441Z,10.90
2023-03-21T11:28:52.276Z,7.68
2023-03-21T11:31:21.077Z,9.98
2023-03-21T11:34:00.120Z,8.68
2023-03-21T11:36:33.962Z,8.18
2023-03-21T11:39:16.057Z,3.72
2023-03-21T11:44:27.394Z,6.18
2023-03-21T11:46:55.689Z,8.45
2023-03-21T11:49:24.367Z,11.80
2023-03-21T11:52:23.769Z,8.30
2023-03-21T11:55:23.766Z,8.70
2023-03-21T11:58:15.136Z,8.32
2023-03-21T12:01:02.126Z,8.20
2023-03-21T12:03:48.275Z,5.65
2023-03-21T12:06:19.398Z,7.63
2023-03-21T12:08:54.669Z,7.40
2023-03-21T12:12:14.184Z,9.85
2023-03-21T12:14:50.436Z,6.05
2023-03-21T12:17:51.454Z,8.82
2023-03-21T12:20:43.259Z,7.15
2023-03-21T12:23:35.211Z,8.15
2023-03-21T12:26:34.938Z,8.82
2023-03-21T12:29:21.086Z,11.05
2023-03-21T12:32:05.714Z,8.65
2023-03-21T12:34:36.046Z,9.57
2023-03-21T12:37:33.686Z,9.68
2023-03-21T12:40:35.716Z,9.90
2023-03-21T12:43:17.526Z,8.40
2023-03-21T12:45:49.241Z,7.80
2023-03-21T12:48:55.289Z,10.63
2023-03-21T12:51:32.674Z,12.63
2023-03-21T12:54:09.201Z,10.43
2023-03-21T12:56:51.294Z,10.75
2023-03-21T12:59:42.925Z,18.15
2023-03-21T13:02:32.375Z,14.25
2023-03-21T13:05:24.182Z,15.50
2023-03-21T13:07:58.596Z,12.95
2023-03-21T13:10:26.041Z,12.50
2023-03-21T13:13:14.702Z,14.48
2023-03-21T13:15:52.648Z,9.32
2023-03-21T13:18:33.327Z,11.77
2023-03-21T13:21:25.977Z,12.10
2023-03-21T13:24:05.429Z,10.82
2023-03-21T13:26:46.248Z,11.15
2023-03-21T13:29:45.484Z,11.15
2023-03-21T13:32:24.870Z,16.98
2023-03-21T13:35:00.517Z,10.13
2023-03-21T13:37:38.949Z,9.35
2023-03-21T13:40:20.540Z,10.77
2023-03-21T13:42:53.850Z,10.27
2023-03-21T13:45:29.782Z,10.43
2023-03-21T13:48:05.866Z,10.65
2023-03-21T13:51:04.514Z,11.73
2023-03-21T13:53:36.880Z,12.80
2023-03-21T13:56:16.379Z,13.65
2023-03-21T13:58:46.776Z,10.35
2023-03-21T14:01:32.423Z,9.73
2023-03-21T14:04:09.945Z,8.85
2023-03-21T14:06:54.343Z,9.93
2023-03-21T14:09:21.852Z,11.50
2023-03-21T14:11:54.654Z,9.68
2023-03-21T14:14:29.638Z,7.60
2023-03-21T14:16:57.084Z,8.23
2023-03-21T14:19:31.543Z,8.88
2023-03-21T14:21:59.422Z,9.25
2023-03-21T14:24:26.945Z,10.88
2023-03-21T14:26:55.174Z,11.82
2023-03-21T14:29:34.700Z,13.45
2023-03-21T14:32:03.522Z,14.60
2023-03-21T14:34:35.030Z,12.43
2023-03-21T14:37:02.607Z,14.25
2023-03-21T14:39:33.647Z,12.80
2023-03-21T14:42:07.333Z,12.70
2023-03-21T14:44:53.407Z,13.15
2023-03-21T14:47:26.430Z,14.07
2023-03-21T14:49:54.392Z,19.08
2023-03-21T14:52:33.087Z,14.05
2023-03-21T14:55:02.737Z,15.48
2023-03-21T14:57:33.367Z,15.85
2023-03-21T15:00:14.756Z,16.10
2023-03-21T15:02:46.156Z,12.27
2023-03-21T15:05:19.213Z,17.35
2023-03-21T15:07:54.941Z,14.63
2023-03-21T15:10:23.505Z,14.23
2023-03-21T15:12:56.418Z,14.65
2023-03-21T15:15:27.570Z,15.50
2023-03-21T15:17:58.748Z,17.00
2023-03-21T15:20:32.170Z,22.02
2023-03-21T15:23:18.315Z,17.70
2023-03-21T15:25:46.120Z,15.85
2023-03-21T15:28:14.938Z,20.60
2023-03-21T15:30:51.445Z,17.67
2023-03-21T15:33:19.897Z,21.83
2023-03-21T15:35:54.280Z,14.18
2023-03-21T15:38:33.312Z,16.40
2023-03-21T15:41:21.789Z,17.92
2023-03-21T15:44:00.870Z,15.32
2023-03-21T15:46:43.461Z,15.02
2023-03-21T15:49:25.561Z,12.50
2023-03-21T15:52:03.265Z,17.92
2023-03-21T15:54:41.591Z,18.30
2023-03-21T15:57:30.255Z,17.83
2023-03-21T16:00:12.138Z,18.60
2023-03-21T16:02:42.155Z,14.70
2023-03-21T16:05:28.669Z,12.07
2023-03-21T16:08:05.371Z,19.38
2023-03-21T16:10:37.304Z,17.40
2023-03-21T16:15:33.444Z,14.60
2023-03-21T16:18:03.781Z,13.73
2023-03-21T16:20:42.819Z,12.93
2023-03-21T16:23:12.413Z,15.23
2023-03-21T16:25:40.775Z,15.93
2023-03-21T16:28:14.654Z,17.85
2023-03-21T16:30:42.013Z,10.90
2023-03-21T16:33:13.422Z,17.23
2023-03-21T16:35:41.484Z,15.10
2023-03-21T16:38:12.579Z,16.63
2023-03-21T16:40:42.635Z,16.17
2023-03-21T16:43:11.297Z,23.73
2023-03-21T16:45:38.726Z,12.05
2023-03-21T16:48:09.094Z,13.27
2023-03-21T16:50:46.957Z,11.75
2023-03-21T16:53:14.246Z,16.50
2023-03-21T16:55:42.204Z,17.00
2023-03-21T16:58:12.084Z,14.85
2023-03-21T17:00:40.511Z,13.98
2023-03-21T17:03:19.495Z,16.77
2023-03-21T17:05:47.317Z,16.17
2023-03-21T17:08:20.149Z,21.15
2023-03-21T17:10:47.531Z,14.23
2023-03-21T17:13:14.869Z,12.23
2023-03-21T17:15:42.356Z,14.73
2023-03-21T17:18:11.447Z,21.35
2023-03-21T17:20:41.721Z,16.95
2023-03-21T17:23:10.474Z,12.70
2023-03-21T17:25:37.862Z,10.45
2023-03-21T17:28:05.341Z,11.15
2023-03-21T17:30:35.691Z,10.50
2023-03-21T17:33:03.154Z,14.10
2023-03-21T17:35:30.574Z,12.02
2023-03-21T17:37:58.696Z,14.50
2023-03-21T17:40:31.460Z,15.52
2023-03-21T17:43:01.169Z,12.75
2023-03-21T17:45:28.623Z,9.20
2023-03-21T17:47:56.063Z,10.02
2023-03-21T17:50:26.088Z,12.95
2023-03-21T17:52:56.668Z,10.80
2023-03-21T17:55:24.613Z,9.43
2023-03-21T17:57:52.892Z,8.13
2023-03-21T18:00:29.773Z,12.68
2023-03-21T18:02:57.621Z,21.60
2023-03-21T18:05:25.656Z,10.23
2023-03-21T18:08:09.644Z,10.23
2023-03-21T18:10:38.710Z,11.00
2023-03-21T18:13:06.337Z,9.35
2023-03-21T18:15:34.819Z,13.27
2023-03-21T18:18:05.235Z,17.00
2023-03-21T18:23:21.781Z,29.02
2023-03-21T18:25:50.059Z,21.77
2023-03-21T18:28:21.318Z,25.45
2023-03-21T18:33:41.050Z,14.43
2023-03-21T18:36:14.083Z,15.32
2023-03-21T18:38:42.504Z,9.10
2023-03-21T18:41:10.468Z,12.00
2023-03-21T18:44:02.952Z,10.35
2023-03-21T18:46:26.692Z,11.85
2023-03-21T18:48:55.283Z,12.85
2023-03-21T18:51:23.311Z,17.65
2023-03-21T18:53:50.731Z,16.05
2023-03-21T18:57:13.146Z,17.92
2023-03-21T18:59:07.722Z,16.17
2023-03-21T19:01:45.478Z,18.15
2023-03-21T19:04:29.374Z,28.35
2023-03-21T19:07:06.302Z,29.27
2023-03-21T19:09:54.752Z,33.78
2023-03-21T19:12:21.393Z,80.82
2023-03-21T19:14:49.139Z,61.78
2023-03-21T19:18:15.369Z,19.80
2023-03-21T19:20:05.924Z,72.40
2023-03-21T19:22:33.529Z,65.82
2023-03-21T19:25:01.157Z,39.67
2023-03-21T19:27:28.608Z,31.33
2023-03-21T19:30:12.748Z,29.23
2023-03-21T19:32:41.463Z,37.97
2023-03-21T19:35:09.858Z,57.42
2023-03-21T19:37:37.916Z,55.47
2023-03-21T19:40:07.246Z,57.00
2023-03-21T19:42:36.473Z,47.28
2023-03-21T19:45:05.745Z,107.38
2023-03-21T19:47:35.736Z,164.32
2023-03-21T19:52:51.577Z,53.00
2023-03-21T19:55:18.922Z,61.83
2023-03-21T19:57:49.353Z,37.85
2023-03-21T20:00:18.609Z,32.72
2023-03-21T20:02:47.328Z,43.50
2023-03-21T20:05:18.040Z,68.35
2023-03-21T20:07:45.689Z,62.78
2023-03-21T20:10:13.154Z,42.83
2023-03-21T20:12:40.706Z,42.75
2023-03-21T20:15:16.972Z,44.08
2023-03-21T20:17:45.269Z,114.78
2023-03-21T20:20:17.677Z,89.78
2023-03-21T20:23:07.948Z,95.65
2023-03-21T20:25:39.278Z,99.47
2023-03-21T20:28:20.121Z,68.05
2023-03-21T20:30:54.771Z,245.48
2023-03-21T20:33:22.498Z,108.80
2023-03-21T20:38:39.608Z,95.47
2023-03-21T20:41:07.606Z,31.38
2023-03-21T20:46:23.486Z,52.33
2023-03-21T20:48:52.741Z,71.63
2023-03-21T20:54:09.165Z,99.38
2023-03-21T20:56:37.158Z,45.70
2023-03-21T20:59:16.738Z,58.78
2023-03-21T21:01:48.474Z,38.33
2023-03-21T21:04:20.169Z,34.67
2023-03-21T21:06:48.603Z,25.80
2023-03-21T21:09:17.074Z,38.40
2023-03-21T21:14:31.807Z,62.28
2023-03-21T21:17:02.588Z,65.10
2023-03-21T21:19:38.405Z,53.35
2023-03-21T21:22:06.006Z,58.97
2023-03-21T21:24:33.311Z,59.03
2023-03-21T21:27:01.446Z,67.60
2023-03-21T21:29:28.878Z,66.57
2023-03-21T21:31:56.461Z,40.50
2023-03-21T21:34:23.893Z,25.63
2023-03-21T21:36:51.385Z,27.00
2023-03-21T21:39:18.762Z,63.65
2023-03-21T21:41:46.453Z,162.63
2023-03-21T21:44:14.097Z,46.03
2023-03-21T21:46:42.567Z,41.70
2023-03-21T21:49:09.917Z,58.70
2023-03-21T21:51:37.377Z,62.60
2023-03-21T21:54:04.949Z,39.75
2023-03-21T21:56:32.315Z,41.13
2023-03-21T21:59:03.283Z,40.70
2023-03-21T22:01:34.927Z,26.92
2023-03-21T22:04:10.959Z,25.65
2023-03-21T22:06:38.551Z,24.55
2023-03-21T22:09:07.151Z,26.08
2023-03-21T22:11:34.722Z,21.05
2023-03-21T22:14:05.256Z,22.48
2023-03-21T22:16:32.745Z,22.40
2023-03-21T22:19:00.244Z,29.35
2023-03-21T22:21:29.126Z,26.02
2023-03-21T22:23:56.474Z,26.10
2023-03-21T22:26:24.231Z,21.83
2023-03-21T22:28:51.751Z,23.30
2023-03-21T22:31:19.296Z,27.67
2023-03-21T22:33:48.812Z,23.58
2023-03-21T22:36:16.163Z,23.80
2023-03-21T22:38:44.087Z,24.65
2023-03-21T22:41:11.669Z,19.48
2023-03-21T22:43:45.570Z,24.45
2023-03-21T22:46:13.103Z,29.58
2023-03-21T22:48:40.500Z,23.05
2023-03-21T22:51:08.288Z,27.05
2023-03-21T22:53:35.690Z,18.45
2023-03-21T22:56:03.020Z,19.58
2023-03-21T22:58:30.702Z,24.02
2023-03-21T23:01:02.264Z,20.85
2023-03-21T23:03:29.627Z,18.42
2023-03-21T23:06:00.673Z,20.27
2023-03-21T23:08:28.239Z,18.33
2023-03-21T23:10:55.576Z,28.25
2023-03-21T23:13:27.078Z,34.63
2023-03-21T23:15:54.620Z,38.63
2023-03-21T23:18:21.898Z,23.65
2023-03-21T23:20:50.085Z,24.00
2023-03-21T23:23:17.582Z,22.27
2023-03-21T23:25:45.389Z,66.82
2023-03-21T23:28:12.760Z,49.47
2023-03-21T23:30:40.539Z,29.55
2023-03-21T23:33:08.038Z,26.02
2023-03-21T23:35:36.527Z,20.65
2023-03-21T23:38:04.720Z,22.25
2023-03-21T23:40:32.234Z,51.85
2023-03-21T23:42:59.888Z,44.83
2023-03-21T23:45:27.271Z,37.72
2023-03-21T23:47:54.726Z,25.08
2023-03-21T23:50:22.287Z,22.58
2023-03-21T23:52:49.745Z,19.50
2023-03-21T23:55:17.172Z,27.67
2023-03-21T23:57:44.533Z,23.30
